Main page
METAR-TAF:

METAR-TAF

Airports :

Quakertown Airport

Quakertown, Pennsylvania, United States

latitude: 40-26-06N, longitude: 075-22-54W, elevation: 525 ft

Current weather observation

The report was made 23 minutes ago, at 17:55 UTC
Wind 14 mph from the West/Southwest with gusts up to 25 mph, varying between Southwest and West
Temperature 37°F
Humidity 48%
Pressure 29.65 in. Hg
Visibility: 10 miles
Broken clouds at a height of 4600 ft
Broken clouds at a height of 5500 ft

METAR: KUKT 271755Z AUTO 25012G22KT 220V280 10SM BKN046 BKN055 03/M07 A2965 RMK A01

Time: 13:18 (18:18 UTC)


TAF: missing

Weather observations and forecasts of more than 4000 airports (METAR and TAF reports).

The available stations are represented by yellow and red dots on the map.

Hover mouse over dot to see the name of the station.

Then click to see weather observations and forecasts.

To change the map : click on the green buttons with a black cross to zoom in, on the green button with a dash to zoom out, or on the green arrows for adjacent maps.


METAR-TAF: